Time;durP1;ratioP1;P1;durP2;ratioP2;P2;SDS_P1;SDS_P2;PMS_P1;PMS_P2;Temp;Humidity;BMP_temperature;BMP_pressure;BME280_temperature;BME280_humidity;BME280_pressure;Samples;Min_cycle;Max_cycle;Signal;HPM_P1;HPM_P2
2022/06/12 00:00:06;;;;;;;17.52;7.93;;;;;;;16.51;84.40;95002.13;5044331;28;20036;-89
2022/06/12 00:02:31;;;;;;;13.63;8.45;;;;;;;15.97;84.86;94917.88;5033406;28;20056;-89
2022/06/12 00:04:57;;;;;;;11.38;8.45;;;;;;;16.10;84.78;94918.81;5047153;28;20044;-89
2022/06/12 00:07:22;;;;;;;12.20;8.07;;;;;;;16.31;84.82;94937.75;5049283;28;20139;-89
2022/06/12 00:09:48;;;;;;;11.55;8.75;;;;;;;16.13;84.74;94878.88;5048185;28;20048;-89
2022/06/12 00:12:13;;;;;;;12.75;8.55;;;;;;;16.29;84.96;94947.97;5029662;28;20056;-89
2022/06/12 00:14:40;;;;;;;14.20;8.57;;;;;;;15.58;85.25;94854.59;5030515;28;20049;-89
2022/06/12 00:17:06;;;;;;;11.57;8.20;;;;;;;15.82;85.71;94894.28;5029399;28;20041;-89
2022/06/12 00:19:31;;;;;;;28.83;9.13;;;;;;;15.49;86.01;94831.59;5045959;28;20052;-89
2022/06/12 00:21:57;;;;;;;12.80;10.27;;;;;;;15.97;86.25;94906.41;5037289;28;20053;-89
2022/06/12 00:24:24;;;;;;;13.75;9.27;;;;;;;16.30;86.35;94993.16;5025841;28;20049;-89
2022/06/12 00:26:52;;;;;;;14.30;9.20;;;;;;;16.43;86.49;94988.75;5011805;28;20049;-89
2022/06/12 00:29:21;;;;;;;16.30;8.75;;;;;;;16.48;86.18;94988.56;5019353;28;20072;-88
2022/06/12 00:31:53;;;;;;;14.88;9.35;;;;;;;15.13;86.63;94816.59;5046851;28;20048;-88
2022/06/12 00:34:22;;;;;;;12.60;9.82;;;;;;;14.87;86.18;94755.13;5028888;28;20048;-88
2022/06/12 00:36:47;;;;;;;10.70;9.23;;;;;;;15.65;86.83;94896.91;5029252;28;20041;-88
2022/06/12 00:39:16;;;;;;;17.42;9.65;;;;;;;15.16;86.69;94801.84;5029373;28;20131;-88
2022/06/12 00:41:44;;;;;;;11.55;9.32;;;;;;;15.89;86.20;94902.59;5024938;28;20076;-89
2022/06/12 00:44:15;;;;;;;13.63;8.48;;;;;;;14.87;86.04;94741.00;5029969;28;20056;-88
2022/06/12 00:46:59;;;;;;;16.00;9.07;;;;;;;16.52;85.83;94993.00;5026829;28;20053;-89
2022/06/12 00:49:35;;;;;;;14.30;9.05;;;;;;;14.67;86.17;94719.09;5011523;28;20083;-88
2022/06/12 00:52:15;;;;;;;13.43;9.57;;;;;;;16.44;86.16;94987.63;5043484;28;20037;-88
2022/06/12 00:54:45;;;;;;;18.77;8.88;;;;;;;15.88;85.99;94890.34;5026028;28;20073;-88
2022/06/12 00:57:11;;;;;;;10.20;9.10;;;;;;;15.54;85.48;94831.50;5029902;28;20049;-88
2022/06/12 00:59:48;;;;;;;16.20;9.70;;;;;;;16.55;86.00;94970.94;5028202;28;20045;-88
2022/06/12 01:02:17;;;;;;;14.73;9.68;;;;;;;16.62;85.76;94977.75;5045250;28;20060;-88
2022/06/12 01:07:37;;;;;;;15.95;9.05;;;;;;;15.97;85.21;94885.78;5034172;28;20039;-89
2022/06/12 01:10:07;;;;;;;16.45;9.50;;;;;;;15.81;84.94;94850.69;5046223;28;20053;-90
2022/06/12 01:12:37;;;;;;;14.55;9.43;;;;;;;15.88;85.12;94849.44;5028290;28;20056;-89
2022/06/12 01:15:10;;;;;;;16.98;10.15;;;;;;;15.78;85.87;94848.66;5027680;28;20159;-89
2022/06/12 01:17:38;;;;;;;12.88;9.15;;;;;;;14.48;84.56;94641.22;5046152;28;20813;-90
2022/06/12 01:20:08;;;;;;;14.32;9.70;;;;;;;16.20;85.05;94899.78;5045846;28;20053;-90
2022/06/12 01:22:56;;;;;;;15.85;9.35;;;;;;;16.70;84.72;94968.94;5026826;28;20059;-89
2022/06/12 01:25:33;;;;;;;13.77;9.30;;;;;;;16.73;84.86;94962.94;5027928;28;20060;-89
2022/06/12 01:28:18;;;;;;;13.77;9.57;;;;;;;16.75;84.75;94953.50;5026803;28;20037;-89
2022/06/12 01:31:10;;;;;;;10.38;8.32;;;;;;;14.71;83.92;94660.56;5018118;28;20053;-89
2022/06/12 01:33:38;;;;;;;11.60;8.68;;;;;;;16.61;84.30;94954.75;5025522;28;20053;-89
2022/06/12 01:36:16;;;;;;;11.02;8.57;;;;;;;16.69;84.21;94959.31;5027727;28;20721;-89
2022/06/12 01:38:54;;;;;;;18.38;10.02;;;;;;;15.97;84.92;94864.41;5027091;28;20048;-89
2022/06/12 01:41:58;;;;;;;14.95;9.77;;;;;;;16.68;85.07;94953.19;5027113;28;20355;-89
2022/06/12 01:44:47;;;;;;;14.18;9.52;;;;;;;16.59;84.72;94960.41;5041134;28;20057;-89
2022/06/12 01:47:36;;;;;;;15.75;9.50;;;;;;;16.45;83.85;94935.69;5017392;28;20749;-89
2022/06/12 01:50:26;;;;;;;11.55;9.18;;;;;;;16.37;84.96;94957.88;5022103;28;20059;-89
2022/06/12 01:53:09;;;;;;;11.95;9.18;;;;;;;15.93;85.21;94884.84;5031754;28;20056;-89
2022/06/12 01:55:37;;;;;;;11.57;9.02;;;;;;;16.47;85.35;94955.69;5026371;28;20049;-89
2022/06/12 01:58:24;;;;;;;12.55;8.80;;;;;;;15.94;84.52;94873.06;5029538;28;20132;-89
2022/06/12 02:01:15;;;;;;;11.88;9.32;;;;;;;16.54;84.85;94955.22;5045700;28;20065;-89
2022/06/12 02:03:53;;;;;;;13.88;9.18;;;;;;;16.30;83.75;94912.09;5020707;28;20055;-89
2022/06/12 02:06:33;;;;;;;13.48;8.68;;;;;;;16.33;84.49;94924.81;5027848;28;20037;-89
2022/06/12 02:09:14;;;;;;;18.70;9.90;;;;;;;15.80;84.62;94859.03;5045279;28;20121;-89
2022/06/12 02:14:37;;;;;;;13.45;8.70;;;;;;;15.90;84.25;94845.34;5045778;28;20044;-89
2022/06/12 02:17:11;;;;;;;9.57;8.38;;;;;;;15.18;83.87;94736.31;5027484;28;20144;-89
2022/06/12 02:19:41;;;;;;;10.57;8.25;;;;;;;16.32;83.83;94931.28;5028580;28;20133;-89
2022/06/12 02:22:12;;;;;;;9.88;7.70;;;;;;;16.59;83.85;94963.06;5027824;28;20061;-89
2022/06/12 02:24:42;;;;;;;13.13;9.23;;;;;;;16.10;83.30;94886.72;5027872;28;20115;-89
2022/06/12 02:27:20;;;;;;;14.65;9.07;;;;;;;16.61;83.76;94955.56;5026653;28;20036;-89
2022/06/12 02:29:53;;;;;;;17.23;8.23;;;;;;;16.15;83.76;94884.69;5027056;28;20041;-89
2022/06/12 02:32:34;;;;;;;15.30;9.35;;;;;;;16.32;83.64;94918.69;5026021;28;20498;-89
2022/06/12 02:35:12;;;;;;;10.25;9.15;;;;;;;16.34;84.08;94953.16;5028999;28;20045;-89
2022/06/12 02:37:44;;;;;;;11.70;8.70;;;;;;;16.52;83.98;94960.88;5030813;28;20075;-89
2022/06/12 02:40:24;;;;;;;17.88;9.07;;;;;;;16.54;84.22;94960.56;5021705;28;20041;-89
2022/06/12 02:42:51;;;;;;;12.57;9.05;;;;;;;16.13;83.60;94908.31;5030667;28;20113;-89
2022/06/12 02:45:28;;;;;;;13.65;8.70;;;;;;;16.44;83.90;94966.22;5031343;28;20079;-89
2022/06/12 02:47:54;;;;;;;19.85;8.88;;;;;;;15.66;84.44;94843.13;5040913;28;20136;-89
2022/06/12 02:50:22;;;;;;;13.95;8.98;;;;;;;16.43;83.81;94951.28;5030523;28;20116;-89
2022/06/12 02:53:14;;;;;;;15.82;9.05;;;;;;;16.62;83.83;94973.19;5030314;28;20123;-89
2022/06/12 02:55:54;;;;;;;10.35;8.93;;;;;;;16.31;84.06;94924.38;5019218;28;20041;-89
2022/06/12 02:58:59;;;;;;;13.93;8.70;;;;;;;15.66;83.34;94826.31;5026157;28;20048;-89
2022/06/12 03:01:37;;;;;;;14.55;8.68;;;;;;;16.21;83.61;94918.22;4998765;28;20511;-89
2022/06/12 03:04:06;;;;;;;11.27;8.60;;;;;;;16.56;83.02;94969.84;5049141;28;20086;-89
2022/06/12 03:06:32;;;;;;;14.23;9.63;;;;;;;15.89;83.22;94878.53;5034711;28;20045;-89
2022/06/12 03:09:02;;;;;;;11.07;9.63;;;;;;;15.89;83.92;94877.75;5025020;28;20099;-89
2022/06/12 03:11:36;;;;;;;12.05;10.07;;;;;;;16.04;83.66;94886.09;5049585;28;20056;-89
2022/06/12 03:14:08;;;;;;;13.90;10.02;;;;;;;16.49;83.47;94976.75;5031628;28;20040;-89
2022/06/12 03:16:37;;;;;;;15.32;9.52;;;;;;;16.47;83.44;94971.75;5026975;28;20512;-89
2022/06/12 03:19:19;;;;;;;12.57;9.95;;;;;;;16.45;83.76;94973.94;5029839;28;20167;-89
2022/06/12 03:22:10;;;;;;;18.67;9.40;;;;;;;16.54;83.48;94974.75;5021738;28;20101;-89
2022/06/12 03:25:02;;;;;;;13.40;8.90;;;;;;;15.95;83.79;94922.75;5047383;28;20043;-89
2022/06/12 03:27:37;;;;;;;16.17;9.70;;;;;;;16.00;84.38;94930.63;5018225;28;20051;-88
2022/06/12 03:30:15;;;;;;;13.95;10.05;;;;;;;16.37;83.90;94966.69;5013910;28;20049;-89
2022/06/12 03:33:02;;;;;;;16.15;9.82;;;;;;;16.40;83.63;94959.94;5046590;28;20044;-89
2022/06/12 03:35:31;;;;;;;10.82;9.60;;;;;;;16.42;83.11;94947.00;5029752;28;20037;-88
2022/06/12 03:38:06;;;;;;;14.52;9.90;;;;;;;16.47;83.71;94963.72;5030946;28;20676;-89
2022/06/12 03:40:40;;;;;;;12.80;9.75;;;;;;;16.34;83.81;94966.53;5031071;28;20037;-89
2022/06/12 03:43:28;;;;;;;11.52;9.23;;;;;;;16.30;83.86;94944.19;5052862;28;20076;-89
2022/06/12 03:45:54;;;;;;;11.60;9.43;;;;;;;16.61;83.29;94968.94;5047337;28;20044;-89
2022/06/12 03:49:01;;;;;;;11.02;9.52;;;;;;;16.30;82.91;94931.59;5029044;28;20505;-89
2022/06/12 03:51:49;;;;;;;12.85;9.85;;;;;;;16.31;84.07;94962.63;4989825;28;20045;-89
2022/06/12 03:54:25;;;;;;;17.50;10.68;;;;;;;15.50;84.15;94874.06;5006218;28;20041;-88
2022/06/12 04:00:04;;;;;;;13.20;10.07;;;;;;;16.10;84.98;94961.63;5047621;28;20624;-88
2022/06/12 04:02:32;;;;;;;15.07;10.75;;;;;;;15.69;84.79;94901.34;5029172;28;20044;-88
2022/06/12 04:05:00;;;;;;;14.55;10.77;;;;;;;15.70;85.28;94918.16;5028537;28;20527;-88
2022/06/12 04:07:29;;;;;;;13.43;10.52;;;;;;;16.12;85.02;94970.13;5028761;28;20159;-88
2022/06/12 04:09:59;;;;;;;13.52;11.45;;;;;;;15.48;85.37;94891.50;5047308;28;20044;-88
2022/06/12 04:12:28;;;;;;;14.20;12.18;;;;;;;16.02;85.81;94975.81;5046585;28;20033;-88
2022/06/12 04:15:04;;;;;;;17.25;12.52;;;;;;;15.54;84.99;94883.06;5046354;28;20139;-88
2022/06/12 04:17:30;;;;;;;18.13;12.60;;;;;;;15.31;84.74;94868.19;5021488;28;20099;-88
2022/06/12 04:20:04;;;;;;;16.08;11.90;;;;;;;13.26;84.47;94544.25;5028631;28;20068;-88
2022/06/12 04:22:38;;;;;;;13.27;11.35;;;;;;;16.09;84.89;94987.63;5027802;28;20741;-88
2022/06/12 04:25:26;;;;;;;15.95;12.05;;;;;;;15.65;85.18;94920.97;5031706;28;20045;-89
2022/06/12 04:27:52;;;;;;;15.63;12.32;;;;;;;15.84;85.46;94964.28;5021747;28;20068;-88
2022/06/12 04:30:26;;;;;;;18.52;12.82;;;;;;;16.18;84.98;94993.75;5034363;28;20431;-88
2022/06/12 04:33:44;;;;;;;19.23;12.10;;;;;;;16.07;85.64;94987.13;5051518;28;20045;-88
2022/06/12 04:36:10;;;;;;;14.95;13.07;;;;;;;14.49;85.54;94746.06;5015204;28;20075;-88
2022/06/12 04:38:46;;;;;;;19.73;13.05;;;;;;;15.85;85.48;94933.75;5035342;28;20522;-88
2022/06/12 04:41:22;;;;;;;21.05;14.15;;;;;;;14.30;84.72;94692.91;5027127;28;20049;-88
2022/06/12 04:43:51;;;;;;;18.38;13.82;;;;;;;15.49;85.31;94904.53;5024912;28;20060;-88
2022/06/12 04:46:24;;;;;;;16.27;13.07;;;;;;;13.07;84.72;94507.16;5039168;28;20037;-89
2022/06/12 04:48:53;;;;;;;17.77;13.73;;;;;;;13.29;84.40;94523.13;5030121;28;20052;-88
2022/06/12 04:51:19;;;;;;;17.00;14.18;;;;;;;15.22;84.30;94830.78;5031447;28;20045;-89
2022/06/12 04:53:53;;;;;;;24.77;13.93;;;;;;;14.87;84.60;94787.16;5053735;28;20559;-88
2022/06/12 04:56:24;;;;;;;17.02;13.98;;;;;;;14.42;84.29;94681.69;5032324;28;20052;-89
2022/06/12 04:58:52;;;;;;;20.05;13.55;;;;;;;13.06;83.60;94465.66;5026695;28;20053;-89
2022/06/12 05:01:27;;;;;;;17.80;14.02;;;;;;;13.07;82.97;94478.66;5027493;28;20056;-88
2022/06/12 05:03:52;;;;;;;16.35;13.98;;;;;;;13.44;83.41;94520.06;5026698;28;20049;-88
2022/06/12 05:06:18;;;;;;;22.05;14.07;;;;;;;15.36;83.20;94828.75;5044100;28;20055;-88
2022/06/12 05:08:47;;;;;;;17.20;13.93;;;;;;;15.27;83.18;94795.09;5026137;28;20075;-89
2022/06/12 05:11:13;;;;;;;21.50;14.07;;;;;;;16.63;83.45;95003.44;5009642;28;20033;-89
2022/06/12 05:13:39;;;;;;;19.73;14.25;;;;;;;16.43;83.14;94961.97;5027146;28;20110;-88
2022/06/12 05:16:06;;;;;;;19.80;13.15;;;;;;;16.07;82.50;94893.50;5027472;28;20056;-88
2022/06/12 05:18:32;;;;;;;18.33;12.85;;;;;;;14.75;83.23;94720.22;5044249;28;20041;-88
2022/06/12 05:20:58;;;;;;;16.55;12.85;;;;;;;15.68;83.33;94873.03;5026860;28;20811;-88
2022/06/12 05:23:24;;;;;;;19.65;14.02;;;;;;;16.54;83.58;95006.88;5026644;28;20045;-88
2022/06/12 05:25:50;;;;;;;18.25;13.45;;;;;;;16.20;83.43;94937.25;5027448;28;20055;-88
2022/06/12 05:28:17;;;;;;;17.90;13.63;;;;;;;16.68;82.93;95009.41;5048898;28;20045;-88
2022/06/12 05:30:43;;;;;;;17.55;13.88;;;;;;;16.63;83.01;94960.59;5051266;28;20108;-88
2022/06/12 05:33:10;;;;;;;18.65;13.85;;;;;;;15.38;82.40;94775.81;5027305;28;20084;-88
2022/06/12 05:35:37;;;;;;;16.80;13.82;;;;;;;15.19;81.94;94735.22;5023506;28;20103;-88
2022/06/12 05:38:03;;;;;;;21.52;14.32;;;;;;;16.53;82.00;94929.53;5022240;28;20120;-88
2022/06/12 05:40:32;;;;;;;16.33;13.18;;;;;;;16.65;81.99;94964.50;5026559;28;20067;-88
2022/06/12 05:42:58;;;;;;;17.80;13.15;;;;;;;16.60;81.51;94935.19;5044354;28;20557;-88
2022/06/12 05:45:26;;;;;;;16.17;12.50;;;;;;;16.66;81.07;94946.56;5026421;28;20061;-89
2022/06/12 05:47:59;;;;;;;18.10;13.27;;;;;;;17.24;81.21;95026.38;5044878;28;20070;-89
2022/06/12 05:50:29;;;;;;;16.27;13.18;;;;;;;17.12;81.11;95020.84;5022526;28;20069;-89
2022/06/12 05:52:55;;;;;;;19.58;12.48;;;;;;;15.72;81.13;94790.28;5025065;28;20827;-88
2022/06/12 05:55:21;;;;;;;14.70;12.45;;;;;;;16.54;81.18;94923.88;5014141;28;20045;-88
2022/06/12 05:57:46;;;;;;;13.38;11.68;;;;;;;17.18;80.73;94998.94;5045368;28;20542;-89
2022/06/12 06:00:20;;;;;;;16.33;12.35;;;;;;;14.82;80.31;94637.00;5026325;28;20048;-88
2022/06/12 06:02:46;;;;;;;14.52;11.50;;;;;;;17.51;80.75;95033.22;5026055;28;20059;-88
2022/06/12 06:05:12;;;;;;;17.85;12.73;;;;;;;16.83;81.27;94966.06;5026137;28;20080;-88
2022/06/12 06:07:39;;;;;;;21.40;13.32;;;;;;;17.18;80.99;95012.34;5044523;28;20056;-88
2022/06/12 06:10:08;;;;;;;15.23;12.40;;;;;;;16.08;80.57;94838.13;5025585;28;20045;-89
2022/06/12 06:12:34;;;;;;;18.90;12.70;;;;;;;16.79;80.84;94977.72;5043686;28;20045;-88
2022/06/12 06:14:59;;;;;;;21.85;13.00;;;;;;;16.15;80.20;94836.53;5043808;28;20063;-88
2022/06/12 06:17:25;;;;;;;14.90;12.05;;;;;;;17.07;79.65;94973.59;5026164;28;20147;-88
2022/06/12 06:19:50;;;;;;;14.80;12.77;;;;;;;16.93;79.67;94951.56;5007152;28;20883;-88
2022/06/12 06:22:18;;;;;;;21.02;11.85;;;;;;;16.86;79.39;94924.50;5009473;28;20128;-87
2022/06/12 06:24:44;;;;;;;15.82;12.27;;;;;;;17.44;78.85;95031.03;5040184;28;20068;-87
2022/06/12 06:27:11;;;;;;;20.58;12.45;;;;;;;17.58;78.82;95052.28;5040259;28;20093;-88
2022/06/12 06:29:37;;;;;;;15.82;12.43;;;;;;;16.09;78.82;94827.13;5006763;28;20165;-88
2022/06/12 06:32:05;;;;;;;15.07;12.73;;;;;;;16.08;78.91;94827.44;5013616;28;20124;-88
2022/06/12 06:34:31;;;;;;;13.43;12.02;;;;;;;16.92;79.21;94977.56;5026822;28;20043;-88
2022/06/12 06:36:57;;;;;;;18.70;13.15;;;;;;;17.01;79.29;94974.09;5044737;28;20578;-88
2022/06/12 06:39:23;;;;;;;16.63;11.60;;;;;;;17.09;79.23;94997.41;5026627;28;20175;-88
2022/06/12 06:41:49;;;;;;;20.75;13.15;;;;;;;17.64;79.37;95057.19;5027654;28;20056;-88
2022/06/12 06:46:59;;;;;;;14.40;12.20;;;;;;;17.47;79.03;95016.22;5045246;28;20083;-88
2022/06/12 06:49:24;;;;;;;18.58;12.63;;;;;;;17.32;78.45;94964.69;5025895;28;20045;-88
2022/06/12 06:51:49;;;;;;;19.75;12.15;;;;;;;17.45;77.35;94984.38;5010432;28;20041;-87
2022/06/12 06:54:16;;;;;;;17.20;11.85;;;;;;;17.67;77.50;95021.69;5026280;28;20041;-88
2022/06/12 06:56:42;;;;;;;17.67;11.10;;;;;;;18.03;77.28;95074.09;5025901;28;20059;-89
2022/06/12 06:59:07;;;;;;;18.73;12.80;;;;;;;17.45;77.68;95007.72;5042716;28;20036;-88
2022/06/12 07:01:34;;;;;;;15.80;11.13;;;;;;;16.45;77.91;94847.38;5045070;28;20057;-90
2022/06/12 07:04:00;;;;;;;18.15;12.63;;;;;;;16.81;78.32;94879.91;5025983;28;20053;-89
2022/06/12 07:06:26;;;;;;;15.88;12.30;;;;;;;17.60;78.46;94959.69;5017157;28;20053;-88
2022/06/12 07:08:52;;;;;;;13.52;11.65;;;;;;;17.73;78.10;95036.50;5026691;28;20507;-89
2022/06/12 07:11:18;;;;;;;21.63;12.93;;;;;;;18.04;78.30;95067.59;5026206;28;20139;-89
2022/06/12 07:13:44;;;;;;;18.38;12.48;;;;;;;18.20;78.09;95060.59;5044414;28;20140;-89
2022/06/12 07:16:09;;;;;;;22.05;12.10;;;;;;;18.06;78.37;95049.31;5012696;28;20045;-90
2022/06/12 07:18:35;;;;;;;21.02;12.77;;;;;;;16.95;78.14;94866.31;5040922;28;20060;-88
2022/06/12 07:21:01;;;;;;;17.83;11.43;;;;;;;16.57;77.35;94810.00;5012837;28;20046;-88
2022/06/12 07:23:29;;;;;;;13.45;11.05;;;;;;;17.70;77.11;94985.38;5032881;28;20051;-89
2022/06/12 07:25:58;;;;;;;20.38;11.95;;;;;;;18.20;77.58;95079.38;5030024;28;20053;-87
2022/06/12 07:28:25;;;;;;;14.60;11.82;;;;;;;17.52;77.58;95016.03;5010294;28;20049;-87
2022/06/12 07:30:51;;;;;;;17.20;12.15;;;;;;;17.56;78.43;95016.97;5026107;28;20045;-88
2022/06/12 07:33:18;;;;;;;14.60;11.25;;;;;;;17.97;78.20;95086.09;5014419;28;20108;-88
2022/06/12 07:35:45;;;;;;;14.80;11.20;;;;;;;17.60;77.86;95013.31;5047673;28;20120;-87
2022/06/12 07:38:12;;;;;;;13.70;11.68;;;;;;;18.32;77.91;95086.72;5029409;28;20059;-88
2022/06/12 07:40:44;;;;;;;19.10;12.10;;;;;;;16.70;77.24;94819.00;5029140;28;20040;-88
2022/06/12 07:43:10;;;;;;;15.60;10.98;;;;;;;17.70;76.87;94961.25;5029902;28;20079;-88
2022/06/12 07:45:41;;;;;;;12.60;11.18;;;;;;;18.55;76.15;95092.59;5047944;28;20139;-88
2022/06/12 07:48:08;;;;;;;13.55;10.77;;;;;;;17.66;76.02;94957.66;5029734;28;20116;-88
2022/06/12 07:50:35;;;;;;;17.08;12.00;;;;;;;18.55;76.63;95079.97;5029810;28;20161;-88
2022/06/12 07:53:00;;;;;;;24.60;12.00;;;;;;;17.47;76.26;94900.94;5045916;28;20569;-88
2022/06/12 07:55:26;;;;;;;21.52;11.50;;;;;;;18.44;76.34;95057.28;5047551;28;20045;-88
2022/06/12 07:57:53;;;;;;;13.48;10.70;;;;;;;18.75;75.83;95095.34;5029270;28;20044;-87
2022/06/12 08:00:19;;;;;;;13.68;11.27;;;;;;;17.42;74.91;94850.97;5029311;28;20456;-88
2022/06/12 08:02:46;;;;;;;17.88;11.52;;;;;;;17.94;75.34;94913.13;5029382;28;20044;-88
2022/06/12 08:05:13;;;;;;;21.23;12.70;;;;;;;18.48;77.34;95018.72;5047801;28;20025;-88
2022/06/12 08:07:39;;;;;;;16.45;12.27;;;;;;;19.04;77.56;95066.84;5029707;28;20080;-88
2022/06/12 08:10:06;;;;;;;16.40;12.43;;;;;;;18.73;76.22;95056.50;5030276;28;20068;-89
2022/06/12 08:12:37;;;;;;;14.40;12.48;;;;;;;18.61;77.49;95029.56;5048578;28;20114;-89
2022/06/12 08:15:05;;;;;;;14.32;12.35;;;;;;;19.10;78.02;95087.00;5038920;28;20569;-89
2022/06/12 08:17:30;;;;;;;14.85;12.73;;;;;;;17.71;78.27;94871.63;5030781;28;20045;-90
2022/06/12 08:22:40;;;;;;;16.40;12.75;;;;;;;17.83;78.49;94913.84;5042885;28;20110;-90
2022/06/12 08:25:06;;;;;;;19.30;13.52;;;;;;;19.03;77.63;95101.00;5028874;28;20163;-87
2022/06/12 08:27:32;;;;;;;21.70;13.45;;;;;;;18.38;78.71;95005.69;5025207;28;20162;-84
2022/06/12 08:29:58;;;;;;;16.40;12.45;;;;;;;18.72;79.60;95076.41;5040265;28;20039;-82
2022/06/12 08:32:24;;;;;;;18.80;13.60;;;;;;;18.49;80.17;95052.50;5021578;28;20037;-81
2022/06/12 08:34:54;;;;;;;19.58;14.25;;;;;;;18.71;81.21;95062.19;5022068;28;20405;-81
2022/06/12 08:37:23;;;;;;;23.38;15.25;;;;;;;19.02;80.18;95099.41;5038294;28;20037;-81
2022/06/12 08:39:49;;;;;;;25.60;15.00;;;;;;;19.07;80.88;95080.38;5040094;28;20506;-82
2022/06/12 08:42:29;;;;;;;20.25;13.82;;;;;;;18.76;81.02;95031.66;5039880;28;20041;-82
2022/06/12 08:45:02;;;;;;;23.48;15.82;;;;;;;19.47;81.60;95112.97;5012624;28;20045;-82
2022/06/12 08:47:41;;;;;;;20.02;14.63;;;;;;;19.27;80.26;95105.69;5014827;28;20152;-82
2022/06/12 08:50:11;;;;;;;15.68;13.77;;;;;;;19.43;80.54;95114.72;5040271;28;20049;-83
2022/06/12 08:52:46;;;;;;;17.10;13.77;;;;;;;19.02;80.58;95095.94;5022522;28;20102;-84
2022/06/12 08:55:19;;;;;;;20.55;13.43;;;;;;;19.17;81.23;95114.94;5039923;28;20044;-84
2022/06/12 08:57:58;;;;;;;15.93;13.52;;;;;;;19.12;80.95;95109.78;5037674;28;20049;-84
2022/06/12 09:00:33;;;;;;;18.15;13.43;;;;;;;18.75;80.66;95041.63;5027390;28;20052;-84
2022/06/12 09:02:58;;;;;;;20.52;13.93;;;;;;;19.14;80.85;95090.63;5041186;28;20045;-84
2022/06/12 09:05:48;;;;;;;19.98;13.98;;;;;;;19.18;79.91;95113.84;5041041;28;20037;-83
2022/06/12 09:08:24;;;;;;;24.90;15.73;;;;;;;18.94;82.83;95062.63;5024298;28;20523;-83
2022/06/12 09:11:08;;;;;;;22.50;15.07;;;;;;;18.85;81.11;95054.66;5044685;28;20042;-83
2022/06/12 09:13:46;;;;;;;23.35;14.27;;;;;;;19.29;79.96;95116.91;5031510;28;20148;-83
2022/06/12 09:16:40;;;;;;;19.67;13.65;;;;;;;19.21;80.68;95118.56;5040027;28;20772;-84
2022/06/12 09:19:38;;;;;;;19.55;14.23;;;;;;;19.02;81.33;95082.50;5022825;28;20045;-84
2022/06/12 09:22:09;;;;;;;16.50;12.65;;;;;;;18.93;80.50;95084.47;5041423;28;20318;-84
2022/06/12 09:25:06;;;;;;;18.58;14.30;;;;;;;19.30;81.69;95123.84;5022324;28;20822;-84
2022/06/12 09:27:41;;;;;;;20.27;13.45;;;;;;;19.17;80.65;95116.84;5009812;28;20048;-84
2022/06/12 09:30:16;;;;;;;13.75;11.52;;;;;;;19.17;78.91;95125.69;5023257;28;20041;-84
2022/06/12 09:32:54;;;;;;;13.75;12.07;;;;;;;19.22;79.54;95125.50;5031377;28;20041;-83
2022/06/12 09:35:34;;;;;;;15.52;12.05;;;;;;;18.86;79.50;95130.66;5014771;28;20503;-83
2022/06/12 09:38:21;;;;;;;14.67;12.97;;;;;;;18.74;81.78;95103.75;5039848;28;20425;-82
2022/06/12 09:41:02;;;;;;;16.17;13.68;;;;;;;18.95;81.12;95126.03;5019668;28;20198;-83
2022/06/12 09:43:40;;;;;;;17.83;12.48;;;;;;;18.93;80.98;95128.25;5024471;28;20032;-82
2022/06/12 09:46:34;;;;;;;19.55;13.35;;;;;;;19.01;80.76;95129.28;5034635;28;20099;-83
2022/06/12 09:49:18;;;;;;;22.90;14.40;;;;;;;18.75;81.71;95091.88;5032078;28;20148;-83
2022/06/12 09:51:46;;;;;;;17.25;13.40;;;;;;;19.00;81.14;95123.13;5026128;28;20037;-83
2022/06/12 09:54:28;;;;;;;15.90;12.57;;;;;;;19.17;81.80;95128.38;5020084;28;20179;-83
2022/06/12 09:56:56;;;;;;;18.25;14.13;;;;;;;19.22;80.82;95120.09;5038570;28;20040;-82
2022/06/12 09:59:44;;;;;;;18.00;14.23;;;;;;;19.23;81.77;95121.69;5019546;28;20033;-82
2022/06/12 10:02:25;;;;;;;16.63;11.57;;;;;;;19.01;80.69;95078.22;5009070;28;20055;-82
2022/06/12 10:05:35;;;;;;;21.98;13.38;;;;;;;19.12;82.11;95119.75;5039261;28;20060;-83
2022/06/12 10:08:13;;;;;;;19.33;11.90;;;;;;;19.12;80.83;95117.84;5040131;28;20147;-83
2022/06/12 10:10:45;;;;;;;19.63;12.23;;;;;;;18.22;80.71;95023.47;5020888;28;20053;-83
2022/06/12 10:13:16;;;;;;;20.63;11.85;;;;;;;18.81;81.86;95112.84;5039440;28;20581;-83
2022/06/12 10:15:47;;;;;;;15.77;11.93;;;;;;;18.88;81.09;95115.00;5018616;28;20128;-83
2022/06/12 10:18:28;;;;;;;18.73;11.80;;;;;;;18.87;81.30;95111.53;5024859;28;20853;-83
2022/06/12 10:21:00;;;;;;;15.25;12.20;;;;;;;18.43;82.23;95032.34;5014259;28;20052;-82
2022/06/12 10:23:26;;;;;;;18.83;12.13;;;;;;;18.36;83.09;95032.06;5029489;28;20759;-83
2022/06/12 10:25:57;;;;;;;18.27;13.07;;;;;;;18.87;83.73;95081.97;5006769;28;20053;-84
2022/06/12 10:28:33;;;;;;;15.98;12.98;;;;;;;19.22;84.31;95109.34;5038343;28;20056;-84
2022/06/12 10:31:11;;;;;;;15.13;12.15;;;;;;;18.95;83.48;95052.69;5022101;28;20169;-84
2022/06/12 10:33:42;;;;;;;17.42;10.90;;;;;;;19.22;81.83;95106.66;5038152;28;20608;-84
2022/06/12 10:36:33;;;;;;;14.20;10.38;;;;;;;19.31;79.82;95106.59;5027008;28;20056;-84
2022/06/12 10:39:04;;;;;;;16.13;10.13;;;;;;;19.45;79.36;95109.81;5014014;28;20059;-84
2022/06/12 10:41:31;;;;;;;15.70;11.02;;;;;;;19.61;80.06;95112.66;5022500;28;20052;-84
2022/06/12 10:43:57;;;;;;;23.08;12.55;;;;;;;19.14;80.04;95016.16;5040757;28;20513;-85
2022/06/12 10:46:31;;;;;;;12.63;8.80;;;;;;;19.13;77.45;95017.28;5022358;28;20044;-85
2022/06/12 10:49:01;;;;;;;13.30;9.82;;;;;;;19.72;77.55;95103.06;5040463;28;20068;-85
2022/06/12 10:51:39;;;;;;;14.98;12.02;;;;;;;19.53;77.97;95036.31;5022399;28;20056;-85
2022/06/12 10:54:13;;;;;;;16.75;12.48;;;;;;;19.56;75.65;95076.03;5022558;28;20159;-85
2022/06/12 10:57:25;;;;;;;16.33;10.98;;;;;;;19.70;76.74;95083.78;5026620;28;20053;-85
2022/06/12 10:59:53;;;;;;;16.15;9.55;;;;;;;19.24;77.98;94972.72;5004299;28;20483;-85
2022/06/12 11:02:51;;;;;;;12.13;8.48;;;;;;;19.93;75.54;95093.03;5045870;28;20057;-85
2022/06/12 11:05:32;;;;;;;11.02;9.27;;;;;;;20.26;75.96;95098.34;5043644;28;20156;-85
2022/06/12 11:08:00;;;;;;;16.95;9.35;;;;;;;20.62;75.18;95094.84;5045077;28;20587;-87
2022/06/12 11:10:45;;;;;;;11.10;9.48;;;;;;;20.65;77.76;95102.28;5043258;28;20064;-86
2022/06/12 11:13:32;;;;;;;13.32;9.02;;;;;;;20.76;76.96;95043.28;5021621;28;20159;-85
2022/06/12 11:16:28;;;;;;;7.70;6.85;;;;;;;20.44;71.86;94983.09;5028614;28;20047;-87
2022/06/12 11:18:53;;;;;;;14.20;8.13;;;;;;;21.62;73.22;95090.44;5012010;28;20033;-86
2022/06/12 11:21:38;;;;;;;11.73;8.25;;;;;;;21.78;70.97;95090.44;5027678;28;20510;-86
2022/06/12 11:24:31;;;;;;;13.05;8.00;;;;;;;21.65;71.13;95056.56;5028509;28;20045;-87
2022/06/12 11:27:33;;;;;;;10.93;8.70;;;;;;;22.13;72.27;95047.38;5045322;28;20045;-87
2022/06/12 11:30:23;;;;;;;18.90;8.13;;;;;;;22.37;71.20;95036.38;5028864;28;20051;-87
2022/06/12 11:33:11;;;;;;;14.55;7.72;;;;;;;22.67;70.64;95086.09;5013972;28;20041;-88
2022/06/12 11:35:54;;;;;;;14.02;7.30;;;;;;;22.91;69.29;95090.50;5046947;28;20428;-88
2022/06/12 11:38:29;;;;;;;9.88;6.57;;;;;;;22.91;66.10;95093.22;5030051;28;20079;-88
2022/06/12 11:41:29;;;;;;;11.90;5.53;;;;;;;22.04;65.35;94934.16;5048133;28;20068;-88
2022/06/12 11:44:25;;;;;;;6.38;5.03;;;;;;;23.21;66.53;95081.84;5030139;28;20045;-88
2022/06/12 11:47:20;;;;;;;6.05;4.47;;;;;;;23.18;60.25;95079.88;5030417;28;20048;-89
2022/06/12 11:50:08;;;;;;;7.18;4.35;;;;;;;22.76;60.59;95021.03;5026192;28;20126;-89
2022/06/12 11:53:00;;;;;;;11.00;4.65;;;;;;;23.25;61.64;95071.91;5029836;28;20045;-90
2022/06/12 11:55:44;;;;;;;6.05;4.13;;;;;;;23.14;58.55;95073.59;5047086;28;20500;-89
2022/06/12 11:58:40;;;;;;;13.77;4.97;;;;;;;23.05;61.42;95066.47;5030007;28;20038;-89
2022/06/12 12:01:35;;;;;;;7.82;4.20;;;;;;;23.14;60.12;95068.19;5041008;28;20132;-89
2022/06/12 12:04:25;;;;;;;7.10;4.20;;;;;;;23.23;60.40;95072.25;5048501;28;20072;-89
2022/06/12 12:07:08;;;;;;;6.22;4.47;;;;;;;23.02;62.27;95080.72;5026118;28;20139;-89